Latest Weather Observations for Hobart Airport

IDT60901

Issued at 7:11 am EST Wednesday 19 June 2024 (issued every 10 minutes, with the page automatically refreshed every 10 minutes)

About weather observations | Map of Hobart area stations | Latest observations for Hobart area | Other Formats
Station Details ID: 094250 Name: HOBART AIRPORT Lat: -42.83 Lon: 147.51 Height: 2.2 m
Data from the previous 72 hours. | See also: Recent months at Hobart Airport
Date/Time
EST
Temp
°C
App
Temp
°C
Dew
Point
°C
Rel
Hum
%
Delta-T
°C
Wind Press
QNH
hPa
Press
MSL
hPa
Rain since
9am
mm
Dir  Spd
km/h
Gust
km/h
Spd
kts
Gust
kts
19/07:00am 5.6 2.0 5.0 96 0.3 NW 13 17 7 9 1018.0 1018.0 1.4
19/06:30am 5.4 1.4 5.1 98 0.1 NW 15 19 8 10 1017.7 1017.7 1.2
19/06:00am 5.2 1.6 5.1 99 0.0 NW 13 19 7 10 1017.6 1017.6 1.2
19/05:33am 5.0 1.0 4.9 99 0.0 NW 15 19 8 10 1017.4 1017.4 1.2
19/05:30am 5.0 1.0 4.9 99 0.0 NW 15 19 8 10 1017.4 1017.4 1.2
19/05:00am 5.1 1.1 5.0 99 0.0 NW 15 19 8 10 1017.5 1017.5 1.2
19/04:30am 5.4 2.2 5.3 99 0.0 NNW 11 15 6 8 1017.5 1017.5 1.2
19/04:24am 5.3 1.7 5.2 99 0.0 NNW 13 17 7 9 1017.6 1017.6 1.2
19/04:00am 5.3 1.7 5.2 99 0.0 NW 13 19 7 10 1017.7 1017.7 1.2
19/03:30am 5.5 1.9 5.2 98 0.1 NW 13 17 7 9 1018.0 1018.0 0.8
19/03:15am 5.7 3.0 5.6 99 0.0 NW 9 13 5 7 1018.0 1018.0 0.8
19/03:00am 5.8 3.1 5.7 99 0.0 NNW 9 13 5 7 1018.1 1018.1 0.8
19/02:55am 5.7 3.4 5.6 99 0.0 NNW 7 11 4 6 1018.2 1018.2 0.8
19/02:30am 5.7 2.2 5.6 99 0.0 NW 13 17 7 9 1018.1 1018.1 0.8
19/02:11am 5.8 2.3 5.5 98 0.1 NW 13 17 7 9 1018.2 1018.2 0.4
19/02:00am 6.0 2.6 5.7 98 0.1 NW 13 17 7 9 1018.3 1018.3 0.4
19/01:42am 6.1 3.1 5.8 98 0.1 NW 11 15 6 8 1018.3 1018.3 0.4
19/01:30am 6.2 3.5 5.8 97 0.2 NNW 9 13 5 7 1018.4 1018.4 0.4
19/01:00am 6.3 3.6 5.6 95 0.3 NNW 9 11 5 6 1018.5 1018.5 0.0
19/12:44am 6.4 4.1 5.5 94 0.4 NNW 7 11 4 6 1018.5 1018.5 0.0
19/12:30am 6.6 3.9 5.4 92 0.5 WNW 9 13 5 7 1018.6 1018.6 0.0
19/12:28am 6.7 4.0 5.5 92 0.5 WNW 9 13 5 7 1018.6 1018.6 0.0
19/12:00am 7.0 3.2 5.6 91 0.6 WNW 15 19 8 10 1018.7 1018.7 0.0
 
Date/Time
EST
Temp
°C
App
Temp
°C
Dew
Point
°C
Rel
Hum
%
Delta-T
°C
Wind Press
QNH
hPa
Press
MSL
hPa
Rain since
9am
mm
Dir  Spd
km/h
Gust
km/h
Spd
kts
Gust
kts
18/11:32pm 6.9 4.2 5.7 92 0.5 NW 9 13 5 7 1018.8 1018.8 0.0
18/11:30pm 6.9 4.2 5.7 92 0.5 NW 9 13 5 7 1018.9 1018.9 0.0
18/11:00pm 7.2 5.8 5.5 89 0.8 NW 2 7 1 4 1019.1 1019.1 0.0
18/10:54pm 7.2 5.4 5.5 89 0.8 NNW 4 6 2 3 1019.1 1019.1 0.0
18/10:30pm 7.3 6.3 5.6 89 0.8 CALM 0 6 0 3 1019.1 1019.1 0.0
18/10:00pm 7.2 4.2 5.8 91 0.6 NW 11 13 6 7 1019.1 1019.1 0.0
18/09:30pm 7.7 4.6 5.5 86 1.0 NW 11 13 6 7 1019.3 1019.3 0.0
18/09:00pm 7.6 4.9 5.7 88 0.8 NW 9 11 5 6 1019.4 1019.4 0.0
18/08:30pm 7.8 5.5 5.9 88 0.9 NW 7 11 4 6 1019.5 1019.5 0.0
18/08:00pm 7.5 4.8 5.8 89 0.8 WNW 9 11 5 6 1019.4 1019.4 0.0
18/07:30pm 7.6 5.3 5.7 88 0.9 WSW 7 7 4 4 1019.4 1019.4 0.0
18/07:00pm 7.8 5.1 5.4 85 1.1 WNW 9 15 5 8 1019.3 1019.3 0.0
18/06:30pm 8.2 6.0 6.0 86 1.0 W 7 9 4 5 1019.3 1019.3 0.0
18/06:00pm 8.4 6.1 5.7 83 1.2 NNW 7 11 4 6 1019.2 1019.2 0.0
18/05:30pm 8.4 7.1 6.2 86 1.0 WNW 2 7 1 4 1019.1 1019.1 0.0
18/05:00pm 8.7 6.1 6.0 83 1.2 NW 9 13 5 7 1018.9 1018.9 0.0
18/04:30pm 9.4 6.2 5.2 75 1.9 W 11 13 6 7 1018.8 1018.8 0.0
18/04:00pm 9.6 6.6 5.8 77 1.7 W 11 15 6 8 1018.9 1018.9 0.0
18/03:30pm 9.1 6.6 6.5 84 1.2 NNW 9 11 5 6 1018.9 1018.9 0.0
18/03:00pm 9.3 6.9 6.9 85 1.1 NW 9 13 5 7 1018.9 1018.9 0.0
18/02:30pm 9.1 5.9 6.7 85 1.1 WNW 13 17 7 9 1018.7 1018.7 0.0
18/02:00pm 8.8 5.1 6.4 85 1.1 NW 15 17 8 9 1018.8 1018.8 0.0
18/01:30pm 8.8 5.5 6.6 86 1.0 NW 13 15 7 8 1019.0 1019.0 0.0
18/01:00pm 8.7 5.4 6.5 86 1.0 NW 13 19 7 10 1019.4 1019.4 0.0
18/12:30pm 8.3 4.6 6.1 86 1.0 NW 15 20 8 11 1019.8 1019.8 0.0
18/12:00pm 8.5 4.4 6.0 84 1.1 NW 17 20 9 11 1020.2 1020.2 0.0
18/11:30am 8.3 4.2 6.3 87 0.9 NW 17 20 9 11 1020.5 1020.5 0.0
18/11:15am 8.0 3.9 6.3 89 0.8 NW 17 22 9 12 1020.6 1020.6 0.0
18/11:00am 8.6 4.7 7.2 91 0.7 NW 17 22 9 12 1020.8 1020.8 0.0
18/10:30am 7.2 3.1 6.0 92 0.5 NW 17 20 9 11 1021.2 1021.2 0.0
18/10:00am 7.0 2.9 6.1 94 0.4 NW 17 24 9 13 1021.4 1021.4 0.0
18/09:30am 6.5 2.4 6.1 97 0.2 NW 17 20 9 11 1021.4 1021.4 0.0
18/09:00am 5.9 1.1 5.6 98 0.1 NW 20 26 11 14 1021.2 1021.2 3.2
18/08:30am 6.0 2.2 5.9 99 0.0 NW 15 19 8 10 1021.4 1021.4 3.2
18/08:21am 6.0 2.6 5.9 99 0.0 NW 13 19 7 10 1021.3 1021.3 3.2
18/08:08am 5.9 2.5 5.8 99 0.0 NW 13 15 7 8 1021.3 1021.3 3.2
18/08:00am 5.9 2.9 5.8 99 0.0 NW 11 13 6 7 1021.3 1021.3 3.0
18/07:59am 5.8 2.7 5.7 99 0.0 NW 11 13 6 7 1021.3 1021.3 3.0
18/07:30am 5.7 2.6 5.6 99 0.0 NW 11 15 6 8 1021.3 1021.3 3.0
18/07:19am 5.6 2.5 5.5 99 0.0 NW 11 15 6 8 1021.2 1021.2 3.0
18/07:00am 5.5 1.2 5.4 99 0.0 NW 17 22 9 12 1021.2 1021.2 3.0
18/06:51am 5.6 1.4 5.5 99 0.0 NW 17 20 9 11 1021.1 1021.1 3.0
18/06:42am 5.6 1.3 5.3 98 0.1 NW 17 20 9 11 1021.1 1021.1 3.0
18/06:30am 5.7 1.8 5.4 98 0.1 NW 15 20 8 11 1021.1 1021.1 3.0
18/06:00am 6.0 2.5 5.6 97 0.2 NW 13 19 7 10 1021.0 1021.0 2.8
18/05:49am 6.3 2.9 6.0 98 0.1 NW 13 17 7 9 1020.9 1020.9 2.8
18/05:30am 6.3 2.9 6.0 98 0.1 NW 13 15 7 8 1021.0 1021.0 2.8
18/05:00am 5.9 2.5 5.8 99 0.0 NW 13 15 7 8 1020.8 1020.8 2.8
18/04:33am 6.3 3.3 6.2 99 0.0 NW 11 15 6 8 1021.0 1021.0 2.8
18/04:30am 6.3 3.3 6.2 99 0.0 NW 11 15 6 8 1021.1 1021.1 2.8
18/04:00am 6.5 4.3 6.4 99 0.0 NNW 7 11 4 6 1021.1 1021.1 2.8
18/03:56am 6.5 4.3 6.4 99 0.0 NNW 7 9 4 5 1021.2 1021.2 2.6
18/03:54am 6.6 4.5 6.5 99 0.0 NNW 7 9 4 5 1021.2 1021.2 2.6
18/03:32am 6.6 4.5 6.5 99 0.0 NNW 7 9 4 5 1021.3 1021.3 2.4
18/03:30am 6.6 4.7 6.5 99 0.0 NNW 6 9 3 5 1021.3 1021.3 2.4
18/03:26am 6.6 4.7 6.5 99 0.0 NNW 6 9 3 5 1021.3 1021.3 2.4
18/03:03am 6.7 4.8 6.6 99 0.0 NNW 6 9 3 5 1021.5 1021.5 2.2
18/03:00am 6.7 4.6 6.6 99 0.0 NNW 7 11 4 6 1021.5 1021.5 2.0
18/02:51am 6.6 4.5 6.5 99 0.0 NNW 7 11 4 6 1021.5 1021.5 2.0
18/02:30am 6.6 4.5 6.5 99 0.0 NNW 7 9 4 5 1021.6 1021.6 2.0
18/02:17am 6.7 4.8 6.6 99 0.0 NNW 6 9 3 5 1021.6 1021.6 1.8
18/02:09am 6.7 3.8 6.7 100 0.0 NNW 11 15 6 8 1021.6 1021.6 1.8
18/02:00am 6.6 3.7 6.6 100 0.0 NW 11 15 6 8 1021.5 1021.5 1.8
18/01:30am 6.5 2.5 6.5 100 0.0 NW 17 22 9 12 1021.3 1021.3 1.8
18/01:00am 6.5 2.8 6.4 99 0.0 NW 15 17 8 9 1021.4 1021.4 1.8
18/12:50am 6.7 3.1 6.6 99 0.0 WNW 15 19 8 10 1021.5 1021.5 1.8
18/12:30am 7.0 3.1 6.9 99 0.0 WNW 17 19 9 10 1021.7 1021.7 1.8
18/12:07am 7.0 3.8 6.9 99 0.0 WNW 13 17 7 9 1021.8 1021.8 1.6
18/12:00am 6.9 3.7 6.8 99 0.0 WNW 13 15 7 8 1021.9 1021.9 1.6
 
Date/Time
EST
Temp
°C
App
Temp
°C
Dew
Point
°C
Rel
Hum
%
Delta-T
°C
Wind Press
QNH
hPa
Press
MSL
hPa
Rain since
9am
mm
Dir  Spd
km/h
Gust
km/h
Spd
kts
Gust
kts
17/11:30pm 6.8 2.8 6.7 99 0.0 WNW 17 20 9 11 1022.1 1022.1 1.6
17/11:04pm 7.0 3.8 6.7 98 0.1 WNW 13 15 7 8 1022.3 1022.3 1.6
17/11:00pm 7.0 4.1 6.7 98 0.1 WNW 11 15 6 8 1022.3 1022.3 1.6
17/10:50pm 7.0 4.5 6.7 98 0.1 W 9 11 5 6 1022.3 1022.3 1.6
17/10:44pm 7.0 4.5 6.7 98 0.1 W 9 11 5 6 1022.2 1022.2 1.6
17/10:30pm 6.8 4.9 6.5 98 0.1 NW 6 9 3 5 1022.1 1022.1 1.6
17/10:00pm 7.0 5.1 6.7 98 0.1 NNW 6 7 3 4 1022.2 1022.2 1.6
17/09:40pm 6.9 6.1 6.3 96 0.3 CALM 0 0 0 0 1022.3 1022.3 1.4
17/09:30pm 6.5 4.2 5.9 96 0.3 SSE 7 13 4 7 1022.3 1022.3 1.2
17/09:00pm 5.8 3.0 5.2 96 0.3 WNW 9 11 5 6 1022.2 1022.2 1.2
17/08:30pm 6.3 4.0 5.6 95 0.3 WNW 7 7 4 4 1022.3 1022.3 1.2
17/08:00pm 6.8 4.1 5.7 93 0.5 WSW 9 11 5 6 1022.3 1022.3 1.2
17/07:30pm 7.7 5.1 6.0 89 0.8 SW 9 17 5 9 1022.3 1022.3 1.2
17/07:00pm 7.8 4.8 6.1 89 0.8 SW 11 15 6 8 1022.2 1022.2 1.2
17/06:30pm 7.0 3.8 5.2 88 0.8 SW 11 13 6 7 1022.0 1022.0 1.2
17/06:00pm 8.6 5.3 6.2 85 1.1 SW 13 19 7 10 1021.9 1021.9 1.2
17/05:30pm 8.0 5.4 6.0 87 0.9 WSW 9 11 5 6 1021.8 1021.8 1.2
17/05:00pm 8.3 5.7 5.9 85 1.1 SW 9 13 5 7 1021.7 1021.7 1.2
17/04:30pm 9.0 6.0 6.1 82 1.3 SSW 11 15 6 8 1021.7 1021.7 1.2
17/04:00pm 9.6 6.3 6.5 81 1.4 SSW 13 19 7 10 1021.7 1021.7 1.2
17/03:30pm 10.2 6.9 6.4 77 1.8 SSW 13 17 7 9 1021.6 1021.6 1.2
17/03:00pm 10.0 6.7 6.3 78 1.7 SSW 13 19 7 10 1021.6 1021.6 1.2
17/02:30pm 10.3 7.2 7.2 81 1.5 SSW 13 15 7 8 1021.7 1021.7 1.2
17/02:00pm 9.6 7.4 7.7 88 0.9 SSW 9 13 5 7 1021.9 1021.9 1.2
17/01:30pm 8.9 5.5 7.8 93 0.5 SSW 15 22 8 12 1022.2 1022.2 1.2
17/01:17pm 8.9 4.5 7.5 91 0.7 SSW 20 30 11 16 1022.3 1022.3 1.0
17/01:00pm 9.6 6.0 8.2 91 0.7 SW 17 22 9 12 1022.2 1022.2 1.0
17/12:30pm 9.2 6.4 8.4 95 0.4 SSW 13 19 7 10 1022.7 1022.7 1.0
17/12:07pm 9.8 6.8 7.7 87 1.0 SSW 13 20 7 11 1022.8 1022.8 0.4
17/12:00pm 9.6 6.6 7.9 89 0.8 SW 13 17 7 9 1022.9 1022.9 0.4
17/11:44am 8.8 5.8 7.7 93 0.5 SSW 13 19 7 10 1023.0 1023.0 0.4
17/11:30am 8.5 6.2 7.6 94 0.4 SSW 9 13 5 7 1023.1 1023.1 0.4
17/11:16am 8.5 5.4 7.3 92 0.6 SSW 13 19 7 10 1023.3 1023.3 0.2
17/11:00am 8.9 4.6 7.0 88 0.9 SSW 19 24 10 13 1023.4 1023.4 0.0
17/10:30am 9.3 5.6 6.2 81 1.4 SW 15 22 8 12 1023.6 1023.6 0.0
17/10:00am 9.3 5.2 6.4 82 1.3 SSW 17 22 9 12 1023.7 1023.7 0.0
17/09:30am 8.4 5.3 7.2 92 0.6 SW 13 17 7 9 1023.5 1023.5 0.0
17/09:00am 7.9 5.5 6.8 93 0.5 WSW 9 13 5 7 1023.5 1023.5 0.6
17/08:47am 8.0 5.2 7.1 94 0.4 SW 11 15 6 8 1023.5 1023.5 0.6
17/08:30am 8.1 4.0 6.4 89 0.8 SSW 17 24 9 13 1023.5 1023.5 0.6
17/08:00am 8.2 3.3 6.7 90 0.7 S 22 32 12 17 1023.3 1023.3 0.4
17/07:30am 8.1 5.1 6.2 88 0.9 SW 11 15 6 8 1023.1 1023.1 0.4
17/07:00am 8.4 4.3 6.4 87 0.9 SSW 17 24 9 13 1022.9 1022.9 0.4
17/06:30am 8.5 3.9 5.8 83 1.2 SSW 19 24 10 13 1022.9 1022.9 0.4
17/06:00am 8.9 4.3 5.5 79 1.5 SW 19 28 10 15 1022.6 1022.6 0.4
17/05:30am 8.8 3.7 6.1 83 1.2 SSW 22 32 12 17 1022.5 1022.5 0.2
17/05:00am 9.3 4.6 5.1 75 1.9 SSW 19 26 10 14 1022.4 1022.4 0.2
17/04:30am 9.5 5.0 4.1 69 2.4 SSW 17 20 9 11 1022.3 1022.3 0.2
17/04:00am 9.2 5.3 5.2 76 1.8 SSW 15 20 8 11 1022.4 1022.4 0.2
17/03:30am 9.4 4.7 5.2 75 1.9 SSW 19 24 10 13 1022.4 1022.4 0.2
17/03:00am 9.3 4.6 5.1 75 1.9 SSW 19 28 10 15 1022.6 1022.6 0.2
17/02:30am 9.3 4.6 5.3 76 1.8 SSW 19 22 10 12 1022.7 1022.7 0.2
17/02:00am 9.5 4.8 5.1 74 2.0 SSW 19 28 10 15 1022.7 1022.7 0.2
17/01:30am 9.3 4.1 5.7 78 1.6 SSW 22 33 12 18 1022.8 1022.8 0.2
17/01:00am 10.1 4.9 3.8 65 2.8 SSW 20 26 11 14 1022.6 1022.6 0.2
17/12:30am 10.3 4.8 3.8 64 2.9 S 22 32 12 17 1022.7 1022.7 0.2
17/12:00am 10.3 5.0 5.1 70 2.3 SSE 22 32 12 17 1022.8 1022.8 0.2
 
Date/Time
EST
Temp
°C
App
Temp
°C
Dew
Point
°C
Rel
Hum
%
Delta-T
°C
Wind Press
QNH
hPa
Press
MSL
hPa
Rain since
9am
mm
Dir  Spd
km/h
Gust
km/h
Spd
kts
Gust
kts
16/11:30pm 10.2 4.7 3.9 65 2.8 S 22 33 12 18 1022.9 1022.9 0.2
16/11:00pm 10.3 4.8 4.0 65 2.8 S 22 33 12 18 1023.1 1023.1 0.2
16/10:30pm 10.2 4.1 4.8 69 2.4 S 26 37 14 20 1023.1 1023.1 0.2
16/10:00pm 10.2 5.1 4.1 66 2.7 S 20 30 11 16 1023.0 1023.0 0.2
16/09:30pm 9.6 3.7 5.6 76 1.8 SSW 26 35 14 19 1022.9 1022.9 0.2
16/09:00pm 9.5 4.1 6.2 80 1.5 SSW 24 33 13 18 1023.0 1023.0 0.2
16/08:30pm 9.6 4.9 6.0 78 1.7 SSW 20 30 11 16 1022.9 1022.9 0.2
16/08:00pm 9.4 4.7 5.9 79 1.6 SSW 20 28 11 15 1022.9 1022.9 0.2
16/07:30pm 9.4 3.8 5.6 77 1.7 SSW 24 39 13 21 1022.8 1022.8 0.2
16/07:00pm 9.8 3.7 4.6 70 2.3 SSW 26 37 14 20 1022.5 1022.5 0.2
16/06:30pm 9.4 4.1 5.2 75 1.9 SSW 22 33 12 18 1022.3 1022.3 0.2
16/06:00pm 9.1 3.6 5.8 80 1.5 SSW 24 35 13 19 1022.3 1022.3 0.2
16/05:30pm 9.3 3.0 5.5 77 1.7 SSW 28 39 15 21 1022.1 1022.1 0.2
16/05:00pm 9.8 4.2 5.2 73 2.1 S 24 35 13 19 1022.0 1022.0 0.2
16/04:30pm 9.5 3.6 5.7 77 1.7 S 26 37 14 20 1021.8 1021.8 0.2
16/04:00pm 10.0 4.4 5.6 74 2.0 SSW 24 32 13 17 1021.5 1021.5 0.0
16/03:30pm 10.2 4.3 5.6 73 2.1 SSW 26 37 14 20 1021.2 1021.2 0.0
16/03:10pm 10.4 4.0 5.4 71 2.3 SSW 28 46 15 25 1021.1 1021.1 0.0
16/03:00pm 10.7 4.7 5.3 69 2.5 SSW 26 43 14 23 1021.0 1021.0 0.0
16/02:49pm 10.7 3.5 4.8 67 2.7 SSW 32 50 17 27 1021.0 1021.0 0.0
16/02:30pm 10.9 4.0 4.6 65 2.8 SSW 30 46 16 25 1020.7 1020.7 0.0
16/02:00pm 10.8 4.9 5.6 70 2.4 SSW 26 37 14 20 1020.8 1020.8 0.0
16/01:42pm 10.7 4.4 5.7 71 2.3 SSW 28 46 15 25 1020.7 1020.7 0.0
16/01:30pm 10.5 3.8 5.5 71 2.3 SSW 30 46 16 25 1020.7 1020.7 0.0
16/01:00pm 11.0 4.6 5.3 68 2.6 SSW 28 39 15 21 1020.7 1020.7 0.0
16/12:45pm 10.5 4.2 5.5 71 2.3 SSW 28 46 15 25 1020.9 1020.9 0.0
16/12:30pm 10.5 4.2 5.5 71 2.3 SSW 28 44 15 24 1020.9 1020.9 0.0
16/12:00pm 10.7 4.0 5.5 70 2.4 SSW 30 50 16 27 1021.0 1021.0 0.0
16/11:52am 10.6 4.3 5.6 71 2.3 SSW 28 50 15 27 1021.0 1021.0 0.0
16/11:30am 10.2 3.6 6.0 75 1.9 SSW 30 39 16 21 1021.2 1021.2 0.0
16/11:00am 10.7 4.2 4.6 66 2.7 SSW 28 39 15 21 1021.4 1021.4 0.0
16/10:30am 10.4 3.2 5.0 69 2.4 SSW 32 43 17 23 1021.5 1021.5 0.0
16/10:14am 10.2 3.3 4.8 69 2.4 SSW 30 48 16 26 1021.6 1021.6 0.0
16/10:00am 10.3 4.2 4.9 69 2.4 SSW 26 33 14 18 1021.4 1021.4 0.0
16/09:30am 9.9 3.1 5.1 72 2.2 SSW 30 46 16 25 1021.3 1021.3 0.0
16/09:26am 10.0 3.6 5.0 71 2.3 SSW 28 46 15 25 1021.2 1021.2 0.0
16/09:00am 9.4 3.0 5.4 76 1.8 SSW 28 44 15 24 1021.2 1021.2 1.6
16/08:48am 9.4 3.0 5.4 76 1.8 SSW 28 46 15 25 1021.3 1021.3 1.6
16/08:30am 8.6 2.3 5.7 82 1.3 SSW 28 37 15 20 1021.4 1021.4 1.6
16/08:00am 9.0 2.6 5.4 78 1.6 SSW 28 44 15 24 1021.4 1021.4 1.6
16/07:30am 9.2 4.0 5.4 77 1.7 SSW 22 32 12 17 1021.0 1021.0 1.4

Latest Capital City Observations: Canberra | Sydney | Melbourne | Brisbane | Adelaide | Perth | Hobart | Darwin

Other formats

Comma delimited format used in spreadsheet applications
http://www.bom.gov.au/fwo/IDT60901/IDT60901.94619.axf

JavaScript Object Notation format (JSON) in row-major order
http://www.bom.gov.au/fwo/IDT60901/IDT60901.94619.json

Data quality

Most of these data are generated automatically and are frequently updated. Quality checks on data are not normally performed. It is possible for incorrect values to appear. Refer to information at About Latest Weather Observations and please check the disclaimer before using these data.